^^
Your Local Weather - Clay, NY Station Historical Data
Daily Summary for January 13, 2018 Units:  Both    English   Metric
« Previous Day
Next Day »
Daily Weekly Monthly Yearly Custom
  High: Low: Average:
Temperature: 17.4 °F /  -8.1 °C -0.8 °F /  -18.2 °C 10.1 °F /  -12.2 °C
Dew Point: 15.2 °F /  -9.3 °C -4.2 °F /  -20.1 °C 7.4 °F /  -13.7 °C
Humidity: 91% 85% 89%
Wind Speed: 10.0mph /  16.1km/h - 3.5mph /  5.6km/h
Wind Gust: 13.0mph /  20.9km/h - -
Wind- - WNW
Pressure: 30.53 in /  1033.7 hPa 29.76 in /  1007.7 hPa -
Precipitation: 0.00 in /  0 mm    
Historical Graphs
 
 
Tabular Data for January 13, 2018
Time Temperature Dew Point Pressure Wind Wind Speed Wind Gust Humidity Rainfall Rate (Hourly) solar
00:03 17.4 °F /  -8.1 °C 15.2 °F /  -9.3 °C 29.79in /  1008.7hPa NNE 5.0mph /  8km/h 6.0mph /  9.7km/h 91% 0.00in /  0mm 0 W/m2
00:10 17.2 °F /  -8.2 °C 15.0 °F /  -9.4 °C 29.79in /  1008.7hPa North 5.0mph /  8km/h 8.0mph /  12.9km/h 91% 0.00in /  0mm 0 W/m2
00:18 16.7 °F /  -8.5 °C 14.5 °F /  -9.7 °C 29.79in /  1008.7hPa NW 7.0mph /  11.3km/h 13.0mph /  20.9km/h 91% 0.00in /  0mm 0 W/m2
00:23 16.5 °F /  -8.6 °C 14.1 °F /  -9.9 °C 29.80in /  1009hPa NW 7.0mph /  11.3km/h 9.0mph /  14.5km/h 90% 0.00in /  0mm 0 W/m2
00:29 16.3 °F /  -8.7 °C 13.9 °F /  -10.1 °C 29.80in /  1009hPa NW 7.0mph /  11.3km/h 7.0mph /  11.3km/h 90% 0.00in /  0mm 0 W/m2
00:35 16.3 °F /  -8.7 °C 14.1 °F /  -9.9 °C 29.80in /  1009hPa North 6.0mph /  9.7km/h 7.0mph /  11.3km/h 91% 0.00in /  0mm 0 W/m2
00:42 16.2 °F /  -8.8 °C 13.8 °F /  -10.1 °C 29.81in /  1009.4hPa NW 4.0mph /  6.4km/h 5.0mph /  8km/h 90% 0.00in /  0mm 0 W/m2
00:48 16.1 °F /  -8.8 °C 13.9 °F /  -10.1 °C 29.82in /  1009.7hPa NNW 5.0mph /  8km/h 7.0mph /  11.3km/h 91% 0.00in /  0mm 0 W/m2
00:53 16.1 °F /  -8.8 °C 13.9 °F /  -10.1 °C 29.82in /  1009.7hPa NNW 4.0mph /  6.4km/h 5.0mph /  8km/h 91% 0.00in /  0mm 0 W/m2
01:05 15.7 °F /  -9.1 °C 13.3 °F /  -10.4 °C 29.80in /  1009hPa NW 7.0mph /  11.3km/h 10.0mph /  16.1km/h 90% 0.00in /  0mm 0 W/m2
01:12 15.5 °F /  -9.2 °C 13.1 °F /  -10.5 °C 29.76in /  1007.7hPa NNW 7.0mph /  11.3km/h 7.0mph /  11.3km/h 90% 0.00in /  0mm 0 W/m2
01:18 15.3 °F /  -9.3 °C 12.9 °F /  -10.6 °C 29.78in /  1008.4hPa NNW 7.0mph /  11.3km/h 11.0mph /  17.7km/h 90% 0.00in /  0mm 0 W/m2
01:23 15.2 °F /  -9.3 °C 12.8 °F /  -10.7 °C 29.78in /  1008.4hPa NW 7.0mph /  11.3km/h 11.0mph /  17.7km/h 90% 0.00in /  0mm 0 W/m2
01:29 15.1 °F /  -9.4 °C 12.7 °F /  -10.7 °C 29.79in /  1008.7hPa NNW 7.0mph /  11.3km/h 7.0mph /  11.3km/h 90% 0.00in /  0mm 0 W/m2
01:36 15.0 °F /  -9.4 °C 12.6 °F /  -10.8 °C 29.77in /  1008hPa North 7.0mph /  11.3km/h 10.0mph /  16.1km/h 90% 0.00in /  0mm 0 W/m2
01:42 14.9 °F /  -9.5 °C 12.5 °F /  -10.8 °C 29.78in /  1008.4hPa NW 6.0mph /  9.7km/h 9.0mph /  14.5km/h 90% 0.00in /  0mm 0 W/m2
01:48 14.8 °F /  -9.6 °C 12.4 °F /  -10.9 °C 29.76in /  1007.7hPa NNE 7.0mph /  11.3km/h 9.0mph /  14.5km/h 90% 0.00in /  0mm 0 W/m2
01:54 14.6 °F /  -9.7 °C 12.2 °F /  -11 °C 29.77in /  1008hPa NW 8.0mph /  12.9km/h 11.0mph /  17.7km/h 90% 0.00in /  0mm 0 W/m2
02:00 14.3 °F /  -9.8 °C 11.9 °F /  -11.2 °C 29.77in /  1008hPa NNW 8.0mph /  12.9km/h 8.0mph /  12.9km/h 90% 0.00in /  0mm 0 W/m2
02:06 14.2 °F /  -9.9 °C 11.8 °F /  -11.2 °C 29.77in /  1008hPa NNW 6.0mph /  9.7km/h 8.0mph /  12.9km/h 90% 0.00in /  0mm 0 W/m2
02:12 14.1 °F /  -9.9 °C 11.7 °F /  -11.3 °C 29.79in /  1008.7hPa NNW 6.0mph /  9.7km/h 6.0mph /  9.7km/h 90% 0.00in /  0mm 0 W/m2
02:19 14.1 °F /  -9.9 °C 11.7 °F /  -11.3 °C 29.80in /  1009hPa NNW 5.0mph /  8km/h 5.0mph /  8km/h 90% 0.00in /  0mm 0 W/m2
02:26 14.0 °F /  -10 °C 11.6 °F /  -11.3 °C 29.81in /  1009.4hPa NNW 5.0mph /  8km/h 9.0mph /  14.5km/h 90% 0.00in /  0mm 0 W/m2
02:35 13.9 °F /  -10.1 °C 11.5 °F /  -11.4 °C 29.81in /  1009.4hPa NW 6.0mph /  9.7km/h 8.0mph /  12.9km/h 90% 0.00in /  0mm 0 W/m2
02:42 13.8 °F /  -10.1 °C 11.2 °F /  -11.6 °C 29.82in /  1009.7hPa North 6.0mph /  9.7km/h 7.0mph /  11.3km/h 89% 0.00in /  0mm 0 W/m2
02:52 13.7 °F /  -10.2 °C 11.3 °F /  -11.5 °C 29.81in /  1009.4hPa NW 3.0mph /  4.8km/h 3.0mph /  4.8km/h 90% 0.00in /  0mm 0 W/m2
02:58 13.7 °F /  -10.2 °C 11.3 °F /  -11.5 °C 29.82in /  1009.7hPa NW 4.0mph /  6.4km/h 7.0mph /  11.3km/h 90% 0.00in /  0mm 0 W/m2
03:03 13.7 °F /  -10.2 °C 11.3 °F /  -11.5 °C 29.83in /  1010hPa NW 4.0mph /  6.4km/h 5.0mph /  8km/h 90% 0.00in /  0mm 0 W/m2
03:09 13.7 °F /  -10.2 °C 11.3 °F /  -11.5 °C 29.83in /  1010hPa NW 3.0mph /  4.8km/h 5.0mph /  8km/h 90% 0.00in /  0mm 0 W/m2
03:16 13.5 °F /  -10.3 °C 11.1 °F /  -11.6 °C 29.83in /  1010hPa NW 4.0mph /  6.4km/h 12.0mph /  19.3km/h 90% 0.00in /  0mm 0 W/m2
03:22 13.2 °F /  -10.4 °C 10.6 °F /  -11.9 °C 29.82in /  1009.7hPa North 6.0mph /  9.7km/h 8.0mph /  12.9km/h 89% 0.00in /  0mm 0 W/m2
03:28 13.0 °F /  -10.6 °C 10.4 °F /  -12 °C 29.82in /  1009.7hPa NNW 6.0mph /  9.7km/h 9.0mph /  14.5km/h 89% 0.00in /  0mm 0 W/m2
03:34 12.9 °F /  -10.6 °C 10.3 °F /  -12.1 °C 29.82in /  1009.7hPa WNW 6.0mph /  9.7km/h 11.0mph /  17.7km/h 89% 0.00in /  0mm 0 W/m2
03:39 12.8 °F /  -10.7 °C 10.2 °F /  -12.1 °C 29.82in /  1009.7hPa North 7.0mph /  11.3km/h 9.0mph /  14.5km/h 89% 0.00in /  0mm 0 W/m2
03:50 12.5 °F /  -10.8 °C 9.9 °F /  -12.3 °C 29.80in /  1009hPa NNW 7.0mph /  11.3km/h 10.0mph /  16.1km/h 89% 0.00in /  0mm 0 W/m2
03:55 12.4 °F /  -10.9 °C 9.8 °F /  -12.3 °C 29.78in /  1008.4hPa North 7.0mph /  11.3km/h 10.0mph /  16.1km/h 89% 0.00in /  0mm 0 W/m2
04:02 12.2 °F /  -11 °C 9.6 °F /  -12.4 °C 29.78in /  1008.4hPa NNE 6.0mph /  9.7km/h 6.0mph /  9.7km/h 89% 0.00in /  0mm 0 W/m2
04:08 12.1 °F /  -11.1 °C 9.5 °F /  -12.5 °C 29.78in /  1008.4hPa NNW 6.0mph /  9.7km/h 7.0mph /  11.3km/h 89% 0.00in /  0mm 0 W/m2
04:13 11.9 °F /  -11.2 °C 9.3 °F /  -12.6 °C 29.79in /  1008.7hPa North 7.0mph /  11.3km/h 8.0mph /  12.9km/h 89% 0.00in /  0mm 0 W/m2
04:20 11.9 °F /  -11.2 °C 9.3 °F /  -12.6 °C 29.80in /  1009hPa NW 6.0mph /  9.7km/h 6.0mph /  9.7km/h 89% 0.00in /  0mm 0 W/m2
04:26 11.8 °F /  -11.2 °C 9.2 °F /  -12.7 °C 29.79in /  1008.7hPa NW 5.0mph /  8km/h 6.0mph /  9.7km/h 89% 0.00in /  0mm 0 W/m2
04:32 11.7 °F /  -11.3 °C 9.1 °F /  -12.7 °C 29.79in /  1008.7hPa NNW 6.0mph /  9.7km/h 8.0mph /  12.9km/h 89% 0.00in /  0mm 0 W/m2
04:38 11.7 °F /  -11.3 °C 9.1 °F /  -12.7 °C 29.80in /  1009hPa North 7.0mph /  11.3km/h 11.0mph /  17.7km/h 89% 0.00in /  0mm 0 W/m2
04:43 11.6 °F /  -11.3 °C 9.0 °F /  -12.8 °C 29.79in /  1008.7hPa NW 7.0mph /  11.3km/h 9.0mph /  14.5km/h 89% 0.00in /  0mm 0 W/m2
04:49 11.5 °F /  -11.4 °C 8.9 °F /  -12.8 °C 29.79in /  1008.7hPa North 8.0mph /  12.9km/h 8.0mph /  12.9km/h 89% 0.00in /  0mm 0 W/m2
04:56 11.6 °F /  -11.3 °C 9.0 °F /  -12.8 °C 29.81in /  1009.4hPa NNW 7.0mph /  11.3km/h 13.0mph /  20.9km/h 89% 0.00in /  0mm 0 W/m2
05:02 11.5 °F /  -11.4 °C 8.9 °F /  -12.8 °C 29.81in /  1009.4hPa North 8.0mph /  12.9km/h 11.0mph /  17.7km/h 89% 0.00in /  0mm 0 W/m2
05:08 11.5 °F /  -11.4 °C 8.9 °F /  -12.8 °C 29.82in /  1009.7hPa NW 10.0mph /  16.1km/h 11.0mph /  17.7km/h 89% 0.00in /  0mm 0 W/m2
05:13 11.5 °F /  -11.4 °C 8.9 °F /  -12.8 °C 29.82in /  1009.7hPa North 8.0mph /  12.9km/h 10.0mph /  16.1km/h 89% 0.00in /  0mm 0 W/m2
05:19 11.5 °F /  -11.4 °C 8.9 °F /  -12.8 °C 29.84in /  1010.4hPa NW 6.0mph /  9.7km/h 9.0mph /  14.5km/h 89% 0.00in /  0mm 0 W/m2
05:26 11.6 °F /  -11.3 °C 9.0 °F /  -12.8 °C 29.85in /  1010.7hPa NNW 6.0mph /  9.7km/h 9.0mph /  14.5km/h 89% 0.00in /  0mm 0 W/m2
05:32 11.6 °F /  -11.3 °C 9.0 °F /  -12.8 °C 29.83in /  1010hPa NW 7.0mph /  11.3km/h 7.0mph /  11.3km/h 89% 0.00in /  0mm 0 W/m2
05:42 11.5 °F /  -11.4 °C 8.9 °F /  -12.8 °C 29.84in /  1010.4hPa NW 8.0mph /  12.9km/h 13.0mph /  20.9km/h 89% 0.00in /  0mm 0 W/m2
05:48 11.4 °F /  -11.4 °C 8.8 °F /  -12.9 °C 29.85in /  1010.7hPa WNW 8.0mph /  12.9km/h 13.0mph /  20.9km/h 89% 0.00in /  0mm 0 W/m2
05:53 11.3 °F /  -11.5 °C 8.7 °F /  -12.9 °C 29.88in /  1011.7hPa NNW 6.0mph /  9.7km/h 8.0mph /  12.9km/h 89% 0.00in /  0mm 0 W/m2
05:59 11.3 °F /  -11.5 °C 8.7 °F /  -12.9 °C 29.90in /  1012.4hPa WNW 4.0mph /  6.4km/h 4.0mph /  6.4km/h 89% 0.00in /  0mm 0 W/m2
06:05 11.4 °F /  -11.4 °C 8.8 °F /  -12.9 °C 29.92in /  1013.1hPa NNW 3.0mph /  4.8km/h 4.0mph /  6.4km/h 89% 0.00in /  0mm 0 W/m2
06:12 11.4 °F /  -11.4 °C 8.8 °F /  -12.9 °C 29.92in /  1013.1hPa WNW 4.0mph /  6.4km/h 5.0mph /  8km/h 89% 0.00in /  0mm 0 W/m2
06:29 11.1 °F /  -11.6 °C 8.5 °F /  -13.1 °C 29.91in /  1012.8hPa NNW 8.0mph /  12.9km/h 8.0mph /  12.9km/h 89% 0.00in /  0mm 0 W/m2
06:36 10.9 °F /  -11.7 °C 8.3 °F /  -13.2 °C 29.93in /  1013.4hPa NNW 6.0mph /  9.7km/h 10.0mph /  16.1km/h 89% 0.00in /  0mm 0 W/m2
06:42 11.0 °F /  -11.7 °C 8.4 °F /  -13.1 °C 29.95in /  1014.1hPa NW 4.0mph /  6.4km/h 5.0mph /  8km/h 89% 0.00in /  0mm 0 W/m2
06:48 10.9 °F /  -11.7 °C 8.3 °F /  -13.2 °C 29.97in /  1014.8hPa WNW 5.0mph /  8km/h 5.0mph /  8km/h 89% 0.00in /  0mm 0 W/m2
06:53 11.0 °F /  -11.7 °C 8.4 °F /  -13.1 °C 29.98in /  1015.1hPa NW 5.0mph /  8km/h 5.0mph /  8km/h 89% 0.00in /  0mm 0 W/m2
07:00 11.0 °F /  -11.7 °C 8.4 °F /  -13.1 °C 29.98in /  1015.1hPa NW 4.0mph /  6.4km/h 4.0mph /  6.4km/h 89% 0.00in /  0mm 0 W/m2
07:06 11.0 °F /  -11.7 °C 8.4 °F /  -13.1 °C 29.98in /  1015.1hPa NW 4.0mph /  6.4km/h 8.0mph /  12.9km/h 89% 0.00in /  0mm 0 W/m2
07:12 10.9 °F /  -11.7 °C 8.3 °F /  -13.2 °C 29.99in /  1015.5hPa NNW 6.0mph /  9.7km/h 6.0mph /  9.7km/h 89% 0.00in /  0mm 0 W/m2
07:18 10.9 °F /  -11.7 °C 8.3 °F /  -13.2 °C 29.99in /  1015.5hPa NNW 5.0mph /  8km/h 9.0mph /  14.5km/h 89% 0.00in /  0mm 0 W/m2
07:23 10.7 °F /  -11.8 °C 8.1 °F /  -13.3 °C 29.99in /  1015.5hPa NNW 5.0mph /  8km/h 9.0mph /  14.5km/h 89% 0.00in /  0mm 0 W/m2
07:29 10.6 °F /  -11.9 °C 8.0 °F /  -13.3 °C 30.00in /  1015.8hPa North 4.0mph /  6.4km/h 4.0mph /  6.4km/h 89% 0.00in /  0mm 0 W/m2
07:36 10.6 °F /  -11.9 °C 8.0 °F /  -13.3 °C 30.01in /  1016.1hPa NNW 4.0mph /  6.4km/h 7.0mph /  11.3km/h 89% 0.00in /  0mm 0 W/m2
07:42 10.6 °F /  -11.9 °C 8.0 °F /  -13.3 °C 30.01in /  1016.1hPa NW 6.0mph /  9.7km/h 6.0mph /  9.7km/h 89% 0.00in /  0mm 0 W/m2
07:48 10.6 °F /  -11.9 °C 8.0 °F /  -13.3 °C 30.02in /  1016.5hPa NW 5.0mph /  8km/h 7.0mph /  11.3km/h 89% 0.00in /  0mm 0 W/m2
07:53 10.7 °F /  -11.8 °C 8.1 °F /  -13.3 °C 30.01in /  1016.1hPa NNW 4.0mph /  6.4km/h 5.0mph /  8km/h 89% 0.00in /  0mm 0 W/m2
07:59 10.6 °F /  -11.9 °C 8.0 °F /  -13.3 °C 30.02in /  1016.5hPa NW 4.0mph /  6.4km/h 5.0mph /  8km/h 89% 0.00in /  0mm 5 W/m2
08:06 10.6 °F /  -11.9 °C 8.0 °F /  -13.3 °C 30.02in /  1016.5hPa NW 4.0mph /  6.4km/h 7.0mph /  11.3km/h 89% 0.00in /  0mm 7 W/m2
08:12 10.7 °F /  -11.8 °C 8.1 °F /  -13.3 °C 30.03in /  1016.8hPa NNW 4.0mph /  6.4km/h 4.0mph /  6.4km/h 89% 0.00in /  0mm 16 W/m2
08:18 10.8 °F /  -11.8 °C 8.2 °F /  -13.2 °C 30.02in /  1016.5hPa NNW 4.0mph /  6.4km/h 9.0mph /  14.5km/h 89% 0.00in /  0mm 25 W/m2
08:23 10.9 °F /  -11.7 °C 8.3 °F /  -13.2 °C 30.03in /  1016.8hPa NW 4.0mph /  6.4km/h 5.0mph /  8km/h 89% 0.00in /  0mm 25 W/m2
08:29 10.9 °F /  -11.7 °C 8.3 °F /  -13.2 °C 30.03in /  1016.8hPa NNW 5.0mph /  8km/h 7.0mph /  11.3km/h 89% 0.00in /  0mm 32 W/m2
08:40 10.9 °F /  -11.7 °C 8.3 °F /  -13.2 °C 30.03in /  1016.8hPa North 4.0mph /  6.4km/h 4.0mph /  6.4km/h 89% 0.00in /  0mm 42 W/m2
08:45 10.8 °F /  -11.8 °C 8.2 °F /  -13.2 °C 30.03in /  1016.8hPa NNW 4.0mph /  6.4km/h 5.0mph /  8km/h 89% 0.00in /  0mm 33 W/m2
08:52 10.7 °F /  -11.8 °C 8.1 °F /  -13.3 °C 30.03in /  1016.8hPa NNW 5.0mph /  8km/h 8.0mph /  12.9km/h 89% 0.00in /  0mm 39 W/m2
08:58 10.7 °F /  -11.8 °C 8.1 °F /  -13.3 °C 30.04in /  1017.2hPa NW 3.0mph /  4.8km/h 8.0mph /  12.9km/h 89% 0.00in /  0mm 51 W/m2
09:03 10.7 °F /  -11.8 °C 8.1 °F /  -13.3 °C 30.04in /  1017.2hPa North 2.0mph /  3.2km/h 3.0mph /  4.8km/h 89% 0.00in /  0mm 70 W/m2
09:10 10.9 °F /  -11.7 °C 8.3 °F /  -13.2 °C 30.04in /  1017.2hPa NNW 3.0mph /  4.8km/h 5.0mph /  8km/h 89% 0.00in /  0mm 74 W/m2
09:18 10.8 °F /  -11.8 °C 8.2 °F /  -13.2 °C 30.06in /  1017.8hPa NNW 5.0mph /  8km/h 6.0mph /  9.7km/h 89% 0.00in /  0mm 60 W/m2
09:23 10.7 °F /  -11.8 °C 7.8 °F /  -13.4 °C 30.07in /  1018.2hPa NNW 5.0mph /  8km/h 6.0mph /  9.7km/h 88% 0.00in /  0mm 54 W/m2
09:30 10.6 °F /  -11.9 °C 7.7 °F /  -13.5 °C 30.07in /  1018.2hPa North 4.0mph /  6.4km/h 4.0mph /  6.4km/h 88% 0.00in /  0mm 62 W/m2
09:35 10.6 °F /  -11.9 °C 8.0 °F /  -13.3 °C 30.08in /  1018.5hPa NNW 4.0mph /  6.4km/h 9.0mph /  14.5km/h 89% 0.00in /  0mm 95 W/m2
09:42 10.5 °F /  -11.9 °C 7.6 °F /  -13.6 °C 30.08in /  1018.5hPa NNW 5.0mph /  8km/h 5.0mph /  8km/h 88% 0.00in /  0mm 125 W/m2
09:50 10.5 °F /  -11.9 °C 7.6 °F /  -13.6 °C 30.09in /  1018.8hPa NW 4.0mph /  6.4km/h 8.0mph /  12.9km/h 88% 0.00in /  0mm 149 W/m2
09:55 10.5 °F /  -11.9 °C 7.9 °F /  -13.4 °C 30.10in /  1019.2hPa NW 5.0mph /  8km/h 8.0mph /  12.9km/h 89% 0.00in /  0mm 169 W/m2
10:02 10.5 °F /  -11.9 °C 7.9 °F /  -13.4 °C 30.11in /  1019.5hPa NNW 4.0mph /  6.4km/h 5.0mph /  8km/h 89% 0.00in /  0mm 260 W/m2
10:08 10.8 °F /  -11.8 °C 7.9 °F /  -13.4 °C 30.12in /  1019.9hPa NNW 4.0mph /  6.4km/h 5.0mph /  8km/h 88% 0.00in /  0mm 214 W/m2
10:14 11.1 °F /  -11.6 °C 8.5 °F /  -13.1 °C 30.12in /  1019.9hPa NNW 4.0mph /  6.4km/h 5.0mph /  8km/h 89% 0.00in /  0mm 186 W/m2
10:20 11.1 °F /  -11.6 °C 8.5 °F /  -13.1 °C 30.13in /  1020.2hPa NNW 5.0mph /  8km/h 5.0mph /  8km/h 89% 0.00in /  0mm 158 W/m2
10:32 11.1 °F /  -11.6 °C 8.5 °F /  -13.1 °C 30.15in /  1020.9hPa North 4.0mph /  6.4km/h 7.0mph /  11.3km/h 89% 0.00in /  0mm 155 W/m2
10:38 11.1 °F /  -11.6 °C 8.5 °F /  -13.1 °C 30.15in /  1020.9hPa NNW 5.0mph /  8km/h 7.0mph /  11.3km/h 89% 0.00in /  0mm 153 W/m2
10:48 10.9 °F /  -11.7 °C 8.0 °F /  -13.3 °C 30.16in /  1021.2hPa North 5.0mph /  8km/h 10.0mph /  16.1km/h 88% 0.00in /  0mm 163 W/m2
10:54 10.7 °F /  -11.8 °C 7.8 °F /  -13.4 °C 30.16in /  1021.2hPa NNW 6.0mph /  9.7km/h 7.0mph /  11.3km/h 88% 0.00in /  0mm 165 W/m2
10:59 10.5 °F /  -11.9 °C 7.6 °F /  -13.6 °C 30.16in /  1021.2hPa North 6.0mph /  9.7km/h 7.0mph /  11.3km/h 88% 0.00in /  0mm 153 W/m2
11:06 10.4 °F /  -12 °C 7.6 °F /  -13.6 °C 30.16in /  1021.2hPa NNW 6.0mph /  9.7km/h 7.0mph /  11.3km/h 88% 0.00in /  0mm 137 W/m2
11:12 10.5 °F /  -11.9 °C 7.6 °F /  -13.6 °C 30.16in /  1021.2hPa NNW 5.0mph /  8km/h 6.0mph /  9.7km/h 88% 0.00in /  0mm 199 W/m2
11:18 10.7 °F /  -11.8 °C 7.8 °F /  -13.4 °C 30.16in /  1021.2hPa NW 4.0mph /  6.4km/h 6.0mph /  9.7km/h 88% 0.00in /  0mm 229 W/m2
11:24 10.9 °F /  -11.7 °C 8.3 °F /  -13.2 °C 30.16in /  1021.2hPa NNW 4.0mph /  6.4km/h 4.0mph /  6.4km/h 89% 0.00in /  0mm 174 W/m2
11:29 11.0 °F /  -11.7 °C 8.4 °F /  -13.1 °C 30.16in /  1021.2hPa NNW 4.0mph /  6.4km/h 4.0mph /  6.4km/h 89% 0.00in /  0mm 149 W/m2
11:36 11.1 °F /  -11.6 °C 8.5 °F /  -13.1 °C 30.16in /  1021.2hPa NW 5.0mph /  8km/h 5.0mph /  8km/h 89% 0.00in /  0mm 125 W/m2
11:46 11.3 °F /  -11.5 °C 8.7 °F /  -12.9 °C 30.16in /  1021.2hPa NW 4.0mph /  6.4km/h 7.0mph /  11.3km/h 89% 0.00in /  0mm 197 W/m2
11:52 11.1 °F /  -11.6 °C 8.5 °F /  -13.1 °C 30.16in /  1021.2hPa NNW 6.0mph /  9.7km/h 9.0mph /  14.5km/h 89% 0.00in /  0mm 176 W/m2
11:58 10.9 °F /  -11.7 °C 8.0 °F /  -13.3 °C 30.16in /  1021.2hPa NW 6.0mph /  9.7km/h 9.0mph /  14.5km/h 88% 0.00in /  0mm 160 W/m2
12:03 10.9 °F /  -11.7 °C 8.0 °F /  -13.3 °C 30.16in /  1021.2hPa NNW 5.0mph /  8km/h 5.0mph /  8km/h 88% 0.00in /  0mm 144 W/m2
12:10 11.0 °F /  -11.7 °C 8.1 °F /  -13.3 °C 30.16in /  1021.2hPa North 4.0mph /  6.4km/h 7.0mph /  11.3km/h 88% 0.00in /  0mm 139 W/m2
12:15 10.9 °F /  -11.7 °C 8.0 °F /  -13.3 °C 30.16in /  1021.2hPa NNW 5.0mph /  8km/h 9.0mph /  14.5km/h 88% 0.00in /  0mm 132 W/m2
12:22 10.9 °F /  -11.7 °C 8.0 °F /  -13.3 °C 30.16in /  1021.2hPa NNW 5.0mph /  8km/h 5.0mph /  8km/h 88% 0.00in /  0mm 151 W/m2
12:28 11.0 °F /  -11.7 °C 8.4 °F /  -13.1 °C 30.16in /  1021.2hPa North 4.0mph /  6.4km/h 8.0mph /  12.9km/h 89% 0.00in /  0mm 146 W/m2
12:34 11.0 °F /  -11.7 °C 8.4 °F /  -13.1 °C 30.16in /  1021.2hPa NNW 4.0mph /  6.4km/h 6.0mph /  9.7km/h 89% 0.00in /  0mm 155 W/m2
12:40 11.0 °F /  -11.7 °C 8.1 °F /  -13.3 °C 30.16in /  1021.2hPa NNW 5.0mph /  8km/h 5.0mph /  8km/h 88% 0.00in /  0mm 174 W/m2
12:45 10.9 °F /  -11.7 °C 8.0 °F /  -13.3 °C 30.16in /  1021.2hPa NNW 5.0mph /  8km/h 7.0mph /  11.3km/h 88% 0.00in /  0mm 165 W/m2
12:52 10.7 °F /  -11.8 °C 7.8 °F /  -13.4 °C 30.16in /  1021.2hPa NW 5.0mph /  8km/h 6.0mph /  9.7km/h 88% 0.00in /  0mm 137 W/m2
12:58 10.6 °F /  -11.9 °C 7.7 °F /  -13.5 °C 30.17in /  1021.6hPa NW 5.0mph /  8km/h 8.0mph /  12.9km/h 88% 0.00in /  0mm 134 W/m2
13:04 10.5 °F /  -11.9 °C 7.6 °F /  -13.6 °C 30.17in /  1021.6hPa NNW 5.0mph /  8km/h 5.0mph /  8km/h 88% 0.00in /  0mm 174 W/m2
13:10 10.6 °F /  -11.9 °C 8.0 °F /  -13.3 °C 30.17in /  1021.6hPa NNW 4.0mph /  6.4km/h 5.0mph /  8km/h 89% 0.00in /  0mm 163 W/m2
13:22 10.9 °F /  -11.7 °C 8.3 °F /  -13.2 °C 30.17in /  1021.6hPa WNW 4.0mph /  6.4km/h 4.0mph /  6.4km/h 89% 0.00in /  0mm 158 W/m2
13:28 11.2 °F /  -11.6 °C 8.6 °F /  -13 °C 30.17in /  1021.6hPa NNW 2.0mph /  3.2km/h 4.0mph /  6.4km/h 89% 0.00in /  0mm 153 W/m2
13:34 11.3 °F /  -11.5 °C 8.7 °F /  -12.9 °C 30.18in /  1021.9hPa NW 3.0mph /  4.8km/h 4.0mph /  6.4km/h 89% 0.00in /  0mm 153 W/m2
13:40 11.4 °F /  -11.4 °C 8.8 °F /  -12.9 °C 30.18in /  1021.9hPa NNW 3.0mph /  4.8km/h 4.0mph /  6.4km/h 89% 0.00in /  0mm 132 W/m2
13:45 11.5 °F /  -11.4 °C 8.9 °F /  -12.8 °C 30.19in /  1022.2hPa North 3.0mph /  4.8km/h 5.0mph /  8km/h 89% 0.00in /  0mm 132 W/m2
13:52 11.5 °F /  -11.4 °C 8.9 °F /  -12.8 °C 30.19in /  1022.2hPa NNW 3.0mph /  4.8km/h 4.0mph /  6.4km/h 89% 0.00in /  0mm 125 W/m2
13:58 11.4 °F /  -11.4 °C 8.8 °F /  -12.9 °C 30.20in /  1022.6hPa NNW 5.0mph /  8km/h 7.0mph /  11.3km/h 89% 0.00in /  0mm 120 W/m2
14:04 11.3 °F /  -11.5 °C 8.7 °F /  -12.9 °C 30.21in /  1022.9hPa NW 5.0mph /  8km/h 7.0mph /  11.3km/h 89% 0.00in /  0mm 121 W/m2
14:10 11.3 °F /  -11.5 °C 8.7 °F /  -12.9 °C 30.21in /  1022.9hPa NW 4.0mph /  6.4km/h 4.0mph /  6.4km/h 89% 0.00in /  0mm 114 W/m2
14:15 11.3 °F /  -11.5 °C 8.7 °F /  -12.9 °C 30.21in /  1022.9hPa WNW 4.0mph /  6.4km/h 4.0mph /  6.4km/h 89% 0.00in /  0mm 107 W/m2
14:22 11.2 °F /  -11.6 °C 8.6 °F /  -13 °C 30.21in /  1022.9hPa NW 4.0mph /  6.4km/h 8.0mph /  12.9km/h 89% 0.00in /  0mm 104 W/m2
14:28 11.2 °F /  -11.6 °C 8.6 °F /  -13 °C 30.22in /  1023.2hPa WNW 4.0mph /  6.4km/h 8.0mph /  12.9km/h 89% 0.00in /  0mm 111 W/m2
14:33 11.1 °F /  -11.6 °C 8.5 °F /  -13.1 °C 30.22in /  1023.2hPa WNW 5.0mph /  8km/h 7.0mph /  11.3km/h 89% 0.00in /  0mm 102 W/m2
14:39 11.1 °F /  -11.6 °C 8.2 °F /  -13.2 °C 30.23in /  1023.6hPa NNW 5.0mph /  8km/h 5.0mph /  8km/h 88% 0.00in /  0mm 104 W/m2
14:55 11.1 °F /  -11.6 °C 8.5 °F /  -13.1 °C 30.24in /  1023.9hPa WNW 4.0mph /  6.4km/h 5.0mph /  8km/h 89% 0.00in /  0mm 83 W/m2
15:08 11.0 °F /  -11.7 °C 8.1 °F /  -13.3 °C 30.26in /  1024.6hPa NW 4.0mph /  6.4km/h 5.0mph /  8km/h 88% 0.00in /  0mm 67 W/m2
15:14 10.9 °F /  -11.7 °C 8.0 °F /  -13.3 °C 30.26in /  1024.6hPa NW 4.0mph /  6.4km/h 7.0mph /  11.3km/h 88% 0.00in /  0mm 65 W/m2
15:26 10.9 °F /  -11.7 °C 8.0 °F /  -13.3 °C 30.27in /  1024.9hPa WNW 3.0mph /  4.8km/h 4.0mph /  6.4km/h 88% 0.00in /  0mm 53 W/m2
15:32 10.9 °F /  -11.7 °C 8.0 °F /  -13.3 °C 30.28in /  1025.3hPa NW 2.0mph /  3.2km/h 3.0mph /  4.8km/h 88% 0.00in /  0mm 49 W/m2
15:38 10.9 °F /  -11.7 °C 8.0 °F /  -13.3 °C 30.29in /  1025.6hPa NW 3.0mph /  4.8km/h 3.0mph /  4.8km/h 88% 0.00in /  0mm 46 W/m2
15:50 11.0 °F /  -11.7 °C 8.4 °F /  -13.1 °C 30.29in /  1025.6hPa NW 2.0mph /  3.2km/h 4.0mph /  6.4km/h 89% 0.00in /  0mm 40 W/m2
15:55 10.9 °F /  -11.7 °C 8.3 °F /  -13.2 °C 30.30in /  1026hPa NNW 3.0mph /  4.8km/h 4.0mph /  6.4km/h 89% 0.00in /  0mm 37 W/m2
16:02 11.0 °F /  -11.7 °C 8.4 °F /  -13.1 °C 30.31in /  1026.3hPa NW 2.0mph /  3.2km/h 3.0mph /  4.8km/h 89% 0.00in /  0mm 30 W/m2
16:08 11.0 °F /  -11.7 °C 8.4 °F /  -13.1 °C 30.31in /  1026.3hPa NW 1.0mph /  1.6km/h 3.0mph /  4.8km/h 89% 0.00in /  0mm 26 W/m2
16:14 11.0 °F /  -11.7 °C 8.4 °F /  -13.1 °C 30.32in /  1026.6hPa NW 1.0mph /  1.6km/h 2.0mph /  3.2km/h 89% 0.00in /  0mm 21 W/m2
16:20 11.0 °F /  -11.7 °C 8.4 °F /  -13.1 °C 30.32in /  1026.6hPa NW 2.0mph /  3.2km/h 4.0mph /  6.4km/h 89% 0.00in /  0mm 18 W/m2
16:25 11.0 °F /  -11.7 °C 8.4 °F /  -13.1 °C 30.33in /  1027hPa NW 2.0mph /  3.2km/h 4.0mph /  6.4km/h 89% 0.00in /  0mm 16 W/m2
16:32 11.0 °F /  -11.7 °C 8.4 °F /  -13.1 °C 30.33in /  1027hPa NW 2.0mph /  3.2km/h 2.0mph /  3.2km/h 89% 0.00in /  0mm 11 W/m2
16:38 11.0 °F /  -11.7 °C 8.4 °F /  -13.1 °C 30.34in /  1027.3hPa NW 1.0mph /  1.6km/h 2.0mph /  3.2km/h 89% 0.00in /  0mm 7 W/m2
16:50 11.0 °F /  -11.7 °C 8.4 °F /  -13.1 °C 30.34in /  1027.3hPa NW 2.0mph /  3.2km/h 2.0mph /  3.2km/h 89% 0.00in /  0mm 0 W/m2
16:56 11.0 °F /  -11.7 °C 8.4 °F /  -13.1 °C 30.35in /  1027.7hPa NW 1.0mph /  1.6km/h 2.0mph /  3.2km/h 89% 0.00in /  0mm 0 W/m2
17:05 10.9 °F /  -11.7 °C 8.3 °F /  -13.2 °C 30.35in /  1027.7hPa NW 1.0mph /  1.6km/h 3.0mph /  4.8km/h 89% 0.00in /  0mm 0 W/m2
17:12 10.7 °F /  -11.8 °C 8.1 °F /  -13.3 °C 30.35in /  1027.7hPa WNW 2.0mph /  3.2km/h 2.0mph /  3.2km/h 89% 0.00in /  0mm 0 W/m2
17:18 10.5 °F /  -11.9 °C 7.6 °F /  -13.6 °C 30.35in /  1027.7hPa WNW 2.0mph /  3.2km/h 2.0mph /  3.2km/h 88% 0.00in /  0mm 0 W/m2
17:24 10.3 °F /  -12.1 °C 7.5 °F /  -13.6 °C 30.36in /  1028hPa WNW 1.0mph /  1.6km/h 1.0mph /  1.6km/h 88% 0.00in /  0mm 0 W/m2
17:35 9.7 °F /  -12.4 °C 6.9 °F /  -13.9 °C 30.37in /  1028.3hPa Calm     88% 0.00in /  0mm 0 W/m2
17:42 9.2 °F /  -12.7 °C 6.4 °F /  -14.2 °C 30.37in /  1028.3hPa Calm     88% 0.00in /  0mm 0 W/m2
17:48 8.8 °F /  -12.9 °C 6.0 °F /  -14.4 °C 30.37in /  1028.3hPa Calm     88% 0.00in /  0mm 0 W/m2
17:53 8.5 °F /  -13.1 °C 5.7 °F /  -14.6 °C 30.38in /  1028.7hPa Calm     88% 0.00in /  0mm 0 W/m2
17:59 8.1 °F /  -13.3 °C 5.3 °F /  -14.8 °C 30.38in /  1028.7hPa Calm     88% 0.00in /  0mm 0 W/m2
18:05 7.8 °F /  -13.4 °C 5.0 °F /  -15 °C 30.38in /  1028.7hPa Calm     88% 0.00in /  0mm 0 W/m2
18:12 7.5 °F /  -13.6 °C 4.7 °F /  -15.2 °C 30.38in /  1028.7hPa Calm     88% 0.00in /  0mm 0 W/m2
18:18 7.3 °F /  -13.7 °C 4.5 °F /  -15.3 °C 30.39in /  1029hPa Calm     88% 0.00in /  0mm 0 W/m2
18:24 7.1 °F /  -13.8 °C 4.3 °F /  -15.4 °C 30.39in /  1029hPa Calm     88% 0.00in /  0mm 0 W/m2
18:30 7.0 °F /  -13.9 °C 4.2 °F /  -15.4 °C 30.40in /  1029.3hPa Calm     88% 0.00in /  0mm 0 W/m2
18:38 7.0 °F /  -13.9 °C 4.2 °F /  -15.4 °C 30.40in /  1029.3hPa Calm     88% 0.00in /  0mm 0 W/m2
18:44 7.0 °F /  -13.9 °C 4.2 °F /  -15.4 °C 30.40in /  1029.3hPa Calm     88% 0.00in /  0mm 0 W/m2
18:49 6.9 °F /  -13.9 °C 4.1 °F /  -15.5 °C 30.40in /  1029.3hPa Calm     88% 0.00in /  0mm 0 W/m2
18:55 6.8 °F /  -14 °C 4.0 °F /  -15.6 °C 30.41in /  1029.7hPa Calm   1.0mph /  1.6km/h 88% 0.00in /  0mm 0 W/m2
19:02 6.7 °F /  -14.1 °C 3.9 °F /  -15.6 °C 30.42in /  1030hPa Calm     88% 0.00in /  0mm 0 W/m2
19:08 6.7 °F /  -14.1 °C 3.9 °F /  -15.6 °C 30.42in /  1030hPa Calm     88% 0.00in /  0mm 0 W/m2
19:14 6.6 °F /  -14.1 °C 3.8 °F /  -15.7 °C 30.42in /  1030hPa Calm     88% 0.00in /  0mm 0 W/m2
19:25 6.8 °F /  -14 °C 4.0 °F /  -15.6 °C 30.43in /  1030.4hPa Calm   1.0mph /  1.6km/h 88% 0.00in /  0mm 0 W/m2
19:32 7.0 °F /  -13.9 °C 4.2 °F /  -15.4 °C 30.43in /  1030.4hPa WNW 1.0mph /  1.6km/h 2.0mph /  3.2km/h 88% 0.00in /  0mm 0 W/m2
19:38 7.2 °F /  -13.8 °C 4.4 °F /  -15.3 °C 30.43in /  1030.4hPa NE 2.0mph /  3.2km/h 3.0mph /  4.8km/h 88% 0.00in /  0mm 0 W/m2
19:43 7.3 °F /  -13.7 °C 4.5 °F /  -15.3 °C 30.43in /  1030.4hPa NE 1.0mph /  1.6km/h 2.0mph /  3.2km/h 88% 0.00in /  0mm 0 W/m2
19:49 7.3 °F /  -13.7 °C 4.5 °F /  -15.3 °C 30.44in /  1030.7hPa NE 1.0mph /  1.6km/h 1.0mph /  1.6km/h 88% 0.00in /  0mm 0 W/m2
19:56 7.2 °F /  -13.8 °C 4.4 °F /  -15.3 °C 30.44in /  1030.7hPa East 2.0mph /  3.2km/h 2.0mph /  3.2km/h 88% 0.00in /  0mm 0 W/m2
20:02 7.0 °F /  -13.9 °C 4.2 °F /  -15.4 °C 30.44in /  1030.7hPa East 2.0mph /  3.2km/h 3.0mph /  4.8km/h 88% 0.00in /  0mm 0 W/m2
20:08 6.8 °F /  -14 °C 3.8 °F /  -15.7 °C 30.45in /  1031hPa ENE 2.0mph /  3.2km/h 3.0mph /  4.8km/h 87% 0.00in /  0mm 0 W/m2
20:14 6.7 °F /  -14.1 °C 3.7 °F /  -15.7 °C 30.45in /  1031hPa ENE 1.0mph /  1.6km/h 2.0mph /  3.2km/h 87% 0.00in /  0mm 0 W/m2
20:23 6.6 °F /  -14.1 °C 3.6 °F /  -15.8 °C 30.45in /  1031hPa ENE 1.0mph /  1.6km/h 2.0mph /  3.2km/h 87% 0.00in /  0mm 0 W/m2
20:30 6.5 °F /  -14.2 °C 3.7 °F /  -15.7 °C 30.45in /  1031hPa ENE 1.0mph /  1.6km/h 2.0mph /  3.2km/h 88% 0.00in /  0mm 0 W/m2
20:35 6.5 °F /  -14.2 °C 3.5 °F /  -15.8 °C 30.46in /  1031.4hPa Calm   2.0mph /  3.2km/h 87% 0.00in /  0mm 0 W/m2
20:42 6.4 °F /  -14.2 °C 3.4 °F /  -15.9 °C 30.46in /  1031.4hPa Calm   2.0mph /  3.2km/h 87% 0.00in /  0mm 0 W/m2
20:48 6.4 °F /  -14.2 °C 3.4 °F /  -15.9 °C 30.46in /  1031.4hPa ENE 1.0mph /  1.6km/h 2.0mph /  3.2km/h 87% 0.00in /  0mm 0 W/m2
20:54 6.3 °F /  -14.3 °C 3.3 °F /  -15.9 °C 30.45in /  1031hPa Calm   1.0mph /  1.6km/h 87% 0.00in /  0mm 0 W/m2
21:02 6.2 °F /  -14.3 °C 3.2 °F /  -16 °C 30.47in /  1031.7hPa Calm     87% 0.00in /  0mm 0 W/m2
21:08 6.1 °F /  -14.4 °C 3.1 °F /  -16.1 °C 30.47in /  1031.7hPa Calm     87% 0.00in /  0mm 0 W/m2
21:16 6.0 °F /  -14.4 °C 3.0 °F /  -16.1 °C 30.47in /  1031.7hPa Calm     87% 0.00in /  0mm 0 W/m2
21:22 5.9 °F /  -14.5 °C 2.9 °F /  -16.2 °C 30.47in /  1031.7hPa Calm     87% 0.00in /  0mm 0 W/m2
21:28 5.8 °F /  -14.6 °C 2.8 °F /  -16.2 °C 30.47in /  1031.7hPa Calm     87% 0.00in /  0mm 0 W/m2
21:34 5.6 °F /  -14.7 °C 2.6 °F /  -16.3 °C 30.47in /  1031.7hPa Calm     87% 0.00in /  0mm 0 W/m2
21:39 5.5 °F /  -14.7 °C 2.5 °F /  -16.4 °C 30.48in /  1032.1hPa Calm     87% 0.00in /  0mm 0 W/m2
21:45 5.3 °F /  -14.8 °C 2.3 °F /  -16.5 °C 30.48in /  1032.1hPa Calm     87% 0.00in /  0mm 0 W/m2
21:52 5.1 °F /  -14.9 °C 2.1 °F /  -16.6 °C 30.48in /  1032.1hPa Calm     87% 0.00in /  0mm 0 W/m2
21:58 5.0 °F /  -15 °C 2.0 °F /  -16.7 °C 30.48in /  1032.1hPa Calm     87% 0.00in /  0mm 0 W/m2
22:03 4.9 °F /  -15.1 °C 1.9 °F /  -16.7 °C 30.48in /  1032.1hPa Calm     87% 0.00in /  0mm 0 W/m2
22:09 4.8 °F /  -15.1 °C 1.8 °F /  -16.8 °C 30.48in /  1032.1hPa Calm     87% 0.00in /  0mm 0 W/m2
22:15 4.7 °F /  -15.2 °C 1.7 °F /  -16.8 °C 30.49in /  1032.4hPa Calm     87% 0.00in /  0mm 0 W/m2
22:22 4.5 °F /  -15.3 °C 1.5 °F /  -16.9 °C 30.49in /  1032.4hPa Calm     87% 0.00in /  0mm 0 W/m2
22:28 4.3 °F /  -15.4 °C 1.3 °F /  -17.1 °C 30.50in /  1032.7hPa Calm     87% 0.00in /  0mm 0 W/m2
22:33 4.1 °F /  -15.5 °C 1.1 °F /  -17.2 °C 30.50in /  1032.7hPa Calm     87% 0.00in /  0mm 0 W/m2
22:40 3.8 °F /  -15.7 °C 0.5 °F /  -17.5 °C 30.50in /  1032.7hPa Calm     86% 0.00in /  0mm 0 W/m2
22:45 3.4 °F /  -15.9 °C 0.2 °F /  -17.7 °C 30.50in /  1032.7hPa Calm     86% 0.00in /  0mm 0 W/m2
23:03 2.3 °F /  -16.5 °C -0.9 °F /  -18.3 °C 30.51in /  1033.1hPa Calm     86% 0.00in /  0mm 0 W/m2
23:13 1.8 °F /  -16.8 °C -1.4 °F /  -18.6 °C 30.51in /  1033.1hPa Calm     86% 0.00in /  0mm 0 W/m2
23:19 1.4 °F /  -17 °C -1.8 °F /  -18.8 °C 30.52in /  1033.4hPa Calm     86% 0.00in /  0mm 0 W/m2
23:26 1.1 °F /  -17.2 °C -2.1 °F /  -18.9 °C 30.52in /  1033.4hPa Calm     86% 0.00in /  0mm 0 W/m2
23:32 0.8 °F /  -17.3 °C -2.4 °F /  -19.1 °C 30.52in /  1033.4hPa Calm     86% 0.00in /  0mm 0 W/m2
23:38 0.4 °F /  -17.6 °C -2.8 °F /  -19.3 °C 30.52in /  1033.4hPa Calm     86% 0.00in /  0mm 0 W/m2
23:44 0.1 °F /  -17.7 °C -3.1 °F /  -19.5 °C 30.53in /  1033.7hPa Calm     86% 0.00in /  0mm 0 W/m2
23:49 -0.4 °F /  -18 °C -3.8 °F /  -19.9 °C 30.53in /  1033.7hPa Calm     85% 0.00in /  0mm 0 W/m2
23:56 -0.8 °F /  -18.2 °C -4.2 °F /  -20.1 °C 30.53in /  1033.7hPa Calm     85% 0.00in /  0mm 0 W/m2
Country Meadow, Clay, NY, USA
Compliments of Weather Underground - 2 mb